createdAt,value
2019-04-11T00:00:55.981Z,0.00
2019-04-11T00:01:56.328Z,0.00
2019-04-11T00:02:55.940Z,0.00
2019-04-11T00:03:55.915Z,0.00
2019-04-11T00:04:56.658Z,0.00
2019-04-11T00:05:55.988Z,0.00
2019-04-11T00:06:56.131Z,0.00
2019-04-11T00:07:58.065Z,0.00
2019-04-11T00:08:56.463Z,0.00
2019-04-11T00:09:56.763Z,0.00
2019-04-11T00:10:55.766Z,0.00
2019-04-11T00:11:55.742Z,0.00
2019-04-11T00:12:57.055Z,0.00
2019-04-11T00:13:55.790Z,0.00
2019-04-11T00:14:56.017Z,0.00
2019-04-11T00:15:55.651Z,0.00
2019-04-11T00:16:55.636Z,0.00
2019-04-11T00:17:56.497Z,0.00
2019-04-11T00:18:56.833Z,0.00
2019-04-11T00:19:55.825Z,0.00
2019-04-11T00:20:56.171Z,0.00
2019-04-11T00:22:54.109Z,0.00
2019-04-11T00:23:53.045Z,0.00
2019-04-11T00:24:53.396Z,0.00
2019-04-11T00:25:53.003Z,0.00
2019-04-11T00:26:52.977Z,0.00
2019-04-11T00:27:53.147Z,0.00
2019-04-11T00:30:05.971Z,0.00
2019-04-11T00:31:06.361Z,0.00
2019-04-11T00:32:08.789Z,0.00
2019-04-11T00:33:05.758Z,0.00
2019-04-11T00:34:05.411Z,0.00
2019-04-11T00:35:05.391Z,0.00
2019-04-11T00:36:06.303Z,0.00
2019-04-11T00:37:05.352Z,0.00
2019-04-11T00:38:05.602Z,0.00
2019-04-11T00:39:05.589Z,0.00
2019-04-11T00:40:05.289Z,0.00
2019-04-11T00:41:05.859Z,0.00
2019-04-11T00:42:06.167Z,0.00
2019-04-11T00:43:05.274Z,0.00
2019-04-11T00:44:06.269Z,0.00
2019-04-11T00:45:05.417Z,0.00
2019-04-11T00:46:48.773Z,0.00
2019-04-11T00:47:47.651Z,0.00
2019-04-11T00:48:48.119Z,0.00
2019-04-11T00:49:48.472Z,0.00
2019-04-11T00:50:47.689Z,0.00
2019-04-11T00:51:47.790Z,0.00
2019-04-11T00:52:47.635Z,0.00
2019-04-11T00:53:47.518Z,0.00
2019-04-11T00:54:47.496Z,0.00
2019-04-11T00:55:48.117Z,0.00
2019-04-11T00:56:48.439Z,0.00
2019-04-11T00:57:47.702Z,0.00
2019-04-11T00:58:47.407Z,0.00
2019-04-11T00:59:47.385Z,0.00
2019-04-11T01:00:47.365Z,0.00
2019-04-11T01:01:47.341Z,0.00
2019-04-11T01:02:47.447Z,0.00
2019-04-11T01:03:47.526Z,0.00
2019-04-11T01:04:47.275Z,0.00
2019-04-11T01:05:47.837Z,0.00
2019-04-11T01:06:47.230Z,0.00
2019-04-11T01:07:47.205Z,0.00
2019-04-11T01:08:48.179Z,0.00
2019-04-11T01:09:47.162Z,0.00
2019-04-11T01:10:47.814Z,0.00
2019-04-11T01:11:47.912Z,0.00
2019-04-11T01:12:47.099Z,0.00
2019-04-11T01:13:51.807Z,0.00
2019-04-11T01:14:47.054Z,0.00
2019-04-11T01:15:47.030Z,0.00
2019-04-11T01:16:47.007Z,0.00
2019-04-11T01:17:47.538Z,0.00
2019-04-11T01:18:46.960Z,0.00
2019-04-11T01:19:46.941Z,0.00
2019-04-11T01:20:48.012Z,0.00
2019-04-11T01:21:46.898Z,0.00
2019-04-11T01:22:46.876Z,0.00
2019-04-11T01:23:47.068Z,0.00
2019-04-11T01:24:46.831Z,0.00
2019-04-11T01:25:46.809Z,0.00
2019-04-11T01:26:47.616Z,0.00
2019-04-11T01:27:47.970Z,0.00
2019-04-11T01:28:46.997Z,0.00
2019-04-11T01:29:47.376Z,0.00
2019-04-11T01:30:47.212Z,0.00
2019-04-11T01:31:46.676Z,0.00
2019-04-11T01:32:46.650Z,0.00
2019-04-11T01:33:46.632Z,0.00
2019-04-11T01:34:46.655Z,0.00
2019-04-11T01:35:47.761Z,0.00
2019-04-11T01:36:46.968Z,0.00
2019-04-11T01:37:46.545Z,0.00
2019-04-11T01:38:46.522Z,0.00
2019-04-11T01:39:47.410Z,0.00
2019-04-11T01:40:46.477Z,0.00
2019-04-11T01:41:46.740Z,0.00
2019-04-11T01:42:47.141Z,0.00
2019-04-11T01:43:55.246Z,0.00
2019-04-11T01:44:47.435Z,0.00
2019-04-11T01:45:46.447Z,0.00
2019-04-11T01:46:46.518Z,0.00
2019-04-11T01:47:46.925Z,0.00
2019-04-11T01:48:46.299Z,0.00
2019-04-11T01:49:46.275Z,0.00
2019-04-11T01:50:47.259Z,0.00
2019-04-11T01:51:46.230Z,0.00
2019-04-11T01:52:46.678Z,0.00
2019-04-11T01:53:46.918Z,0.00
2019-04-11T01:54:46.168Z,0.00
2019-04-11T01:55:46.146Z,0.00
2019-04-11T01:56:46.121Z,0.00
2019-04-11T01:57:46.492Z,0.00
2019-04-11T01:58:46.864Z,0.00
2019-04-11T01:59:46.056Z,0.00
2019-04-11T02:00:46.224Z,0.00
2019-04-11T02:01:47.212Z,0.00
2019-04-11T02:02:46.508Z,0.00
2019-04-11T02:03:45.961Z,0.00
2019-04-11T02:04:46.080Z,0.00
2019-04-11T02:05:45.911Z,0.00
2019-04-11T02:06:45.982Z,0.00
2019-04-11T02:07:46.888Z,0.00
2019-04-11T02:08:45.851Z,0.00
2019-04-11T02:09:46.366Z,0.00
2019-04-11T02:10:45.805Z,0.00
2019-04-11T02:11:45.848Z,0.00
2019-04-11T02:12:45.760Z,0.00
2019-04-11T02:13:45.738Z,0.00
2019-04-11T02:14:45.950Z,0.00
2019-04-11T02:15:46.285Z,0.00
2019-04-11T02:16:45.670Z,0.00
2019-04-11T02:17:46.742Z,0.00
2019-04-11T02:18:45.772Z,0.00
2019-04-11T02:19:45.603Z,0.00
2019-04-11T02:20:45.578Z,0.00
2019-04-11T02:21:46.236Z,0.00
2019-04-11T02:22:46.535Z,0.00
2019-04-11T02:23:45.573Z,0.00
2019-04-11T02:24:45.489Z,0.00
2019-04-11T02:25:45.464Z,0.00
2019-04-11T02:26:46.853Z,0.00
2019-04-11T02:27:46.285Z,0.00
2019-04-11T02:28:45.399Z,0.00
2019-04-11T02:29:45.375Z,0.00
2019-04-11T02:30:46.448Z,0.00
2019-04-11T02:31:46.748Z,0.00
2019-04-11T02:32:47.360Z,0.00
2019-04-11T02:33:46.893Z,0.00
2019-04-11T02:34:46.198Z,0.00
2019-04-11T02:35:47.099Z,0.00
2019-04-11T02:36:45.621Z,0.00
2019-04-11T02:37:47.644Z,0.00
2019-04-11T02:38:48.852Z,0.00
2019-04-11T02:39:45.147Z,0.00
2019-04-11T02:40:45.969Z,0.00
2019-04-11T02:41:46.779Z,0.00
2019-04-11T02:42:45.613Z,0.00
2019-04-11T02:43:46.704Z,0.00
2019-04-11T02:44:59.894Z,0.00
2019-04-11T02:45:56.969Z,0.00
2019-04-11T02:47:48.292Z,0.00
2019-04-11T02:48:45.476Z,0.00
2019-04-11T02:49:45.619Z,0.00
2019-04-11T02:50:45.890Z,0.00
2019-04-11T02:51:45.083Z,0.00
2019-04-11T02:52:44.848Z,0.00
2019-04-11T02:53:45.123Z,0.00
2019-04-11T02:54:45.245Z,0.00
2019-04-11T02:55:46.630Z,0.00
2019-04-11T02:56:45.560Z,0.00
2019-04-11T02:57:45.999Z,0.00
2019-04-11T02:58:46.333Z,0.00
2019-04-11T02:59:46.758Z,0.00
2019-04-11T03:00:45.488Z,0.00
2019-04-11T03:01:46.340Z,0.00
2019-04-11T03:02:44.648Z,0.00
2019-04-11T03:03:45.545Z,0.00
2019-04-11T03:04:46.022Z,0.00
2019-04-11T03:05:46.338Z,0.00
2019-04-11T03:06:45.750Z,0.00
2019-04-11T03:07:45.827Z,0.00
2019-04-11T03:08:44.558Z,0.00
2019-04-11T03:09:46.269Z,0.00
2019-04-11T03:10:45.375Z,0.00
2019-04-11T03:11:45.072Z,0.00
2019-04-11T03:12:46.445Z,0.00
2019-04-11T03:13:46.082Z,0.00
2019-04-11T03:15:01.942Z,0.00
2019-04-11T03:16:03.520Z,0.00
2019-04-11T03:16:56.639Z,0.00
2019-04-11T03:17:46.283Z,0.00
2019-04-11T03:18:59.456Z,0.00
2019-04-11T03:19:59.255Z,0.00
2019-04-11T03:20:50.401Z,0.00
2019-04-11T03:21:46.710Z,0.00
2019-04-11T03:22:45.326Z,0.00
2019-04-11T03:23:44.262Z,0.00
2019-04-11T03:24:44.114Z,0.00
2019-04-11T03:25:44.864Z,0.00
2019-04-11T03:26:45.772Z,0.00
2019-04-11T03:27:45.248Z,0.00
2019-04-11T03:28:47.531Z,0.00
2019-04-11T03:29:45.222Z,0.00
2019-04-11T03:31:07.155Z,0.00
2019-04-11T03:32:34.120Z,0.00
2019-04-11T03:34:27.601Z,0.00
2019-04-11T03:35:51.057Z,0.00
2019-04-11T03:36:37.439Z,0.00
2019-04-11T03:37:18.963Z,0.00
2019-04-11T03:38:09.133Z,0.00
2019-04-11T03:39:08.898Z,0.00
2019-04-11T03:40:07.908Z,0.00
2019-04-11T03:41:02.450Z,0.00
2019-04-11T03:41:59.790Z,0.00
2019-04-11T03:42:59.432Z,0.00
2019-04-11T03:43:55.708Z,0.00
2019-04-11T03:44:47.775Z,0.00
2019-04-11T03:46:05.154Z,4.00
2019-04-11T03:47:01.320Z,4.00
2019-04-11T03:47:57.634Z,0.00
2019-04-11T03:48:55.667Z,0.00
2019-04-11T03:49:51.060Z,4.00
2019-04-11T03:50:44.859Z,4.00
2019-04-11T03:51:45.397Z,0.00
2019-04-11T03:52:44.750Z,4.00
2019-04-11T03:53:44.871Z,4.00
2019-04-11T03:54:43.398Z,4.00
2019-04-11T03:55:43.581Z,4.00
2019-04-11T03:56:43.495Z,8.00
2019-04-11T03:57:43.327Z,8.00
2019-04-11T03:58:43.893Z,12.00
2019-04-11T03:59:43.780Z,12.00
2019-04-11T04:00:44.566Z,12.00
2019-04-11T04:01:44.410Z,16.00
2019-04-11T04:02:44.371Z,20.00
2019-04-11T04:03:44.640Z,24.00
2019-04-11T04:04:43.654Z,28.00
2019-04-11T04:05:44.294Z,28.00
2019-04-11T04:06:43.460Z,36.00
2019-04-11T04:07:44.395Z,40.00
2019-04-11T04:08:44.490Z,40.00
2019-04-11T04:09:43.978Z,52.00
2019-04-11T04:10:43.662Z,52.00
2019-04-11T04:11:44.829Z,60.00
2019-04-11T04:12:43.390Z,68.00
2019-04-11T04:13:42.967Z,76.00
2019-04-11T04:14:44.781Z,84.00
2019-04-11T04:15:55.590Z,92.00
2019-04-11T04:16:47.877Z,104.00
2019-04-11T04:17:43.378Z,112.00
2019-04-11T04:18:43.742Z,128.00
2019-04-11T04:19:43.734Z,140.00
2019-04-11T04:20:43.902Z,148.00
2019-04-11T04:21:42.988Z,164.00
2019-04-11T04:22:44.091Z,176.00
2019-04-11T04:23:43.228Z,196.00
2019-04-11T04:24:44.595Z,208.00
2019-04-11T04:25:45.060Z,224.00
2019-04-11T04:26:43.155Z,240.00
2019-04-11T04:27:43.011Z,256.00
2019-04-11T04:28:42.997Z,272.00
2019-04-11T04:29:46.735Z,288.00
2019-04-11T04:30:44.329Z,308.00
2019-04-11T04:31:42.561Z,328.00
2019-04-11T04:32:42.936Z,348.00
2019-04-11T04:33:42.953Z,368.00
2019-04-11T04:34:44.139Z,388.00
2019-04-11T04:35:44.514Z,408.00
2019-04-11T04:36:42.476Z,428.00
2019-04-11T04:37:43.334Z,448.00
2019-04-11T04:38:44.365Z,468.00
2019-04-11T04:39:43.632Z,488.00
2019-04-11T04:40:58.538Z,508.00
2019-04-11T04:41:49.319Z,532.00
2019-04-11T04:42:46.679Z,556.00
2019-04-11T04:43:44.144Z,576.00
2019-04-11T04:44:42.905Z,596.00
2019-04-11T04:45:58.275Z,616.00
2019-04-11T04:46:55.827Z,636.00
2019-04-11T04:47:47.856Z,656.00
2019-04-11T04:48:43.215Z,680.00
2019-04-11T04:49:43.514Z,696.00
2019-04-11T04:50:42.299Z,716.00
2019-04-11T04:51:43.652Z,740.00
2019-04-11T04:52:42.874Z,756.00
2019-04-11T04:53:43.039Z,776.00
2019-04-11T04:54:41.979Z,796.00
2019-04-11T04:55:43.402Z,816.00
2019-04-11T04:56:43.229Z,840.00
2019-04-11T04:57:42.958Z,856.00
2019-04-11T04:58:42.181Z,876.00
2019-04-11T04:59:42.534Z,896.00
2019-04-11T05:00:41.837Z,912.00
2019-04-11T05:01:43.803Z,932.00
2019-04-11T05:02:42.623Z,952.00
2019-04-11T05:03:42.396Z,968.00
2019-04-11T05:04:43.469Z,988.00
2019-04-11T05:05:42.404Z,1008.00
2019-04-11T05:06:44.809Z,1024.00
2019-04-11T05:07:44.322Z,1044.00
2019-04-11T05:08:42.974Z,1056.00
2019-04-11T05:09:42.603Z,1076.00
2019-04-11T05:10:41.612Z,1092.00
2019-04-11T05:11:42.374Z,1108.00
2019-04-11T05:12:41.770Z,1124.00
2019-04-11T05:13:44.817Z,1140.00
2019-04-11T05:14:41.509Z,1160.00
2019-04-11T05:15:42.167Z,1172.00
2019-04-11T05:16:41.812Z,1188.00
2019-04-11T05:17:43.574Z,1200.00
2019-04-11T05:18:41.987Z,1216.00
2019-04-11T05:19:42.396Z,1228.00
2019-04-11T05:20:41.360Z,1244.00
2019-04-11T05:21:41.484Z,1260.00
2019-04-11T05:22:41.615Z,1276.00
2019-04-11T05:23:41.747Z,1292.00
2019-04-11T05:24:41.277Z,1308.00
2019-04-11T05:25:42.453Z,1324.00
2019-04-11T05:26:41.799Z,1340.00
2019-04-11T05:27:41.923Z,1356.00
2019-04-11T05:28:41.170Z,1368.00
2019-04-11T05:29:41.760Z,1388.00
2019-04-11T05:30:41.908Z,1400.00
2019-04-11T05:31:41.099Z,1412.00
2019-04-11T05:32:41.748Z,1428.00
2019-04-11T05:33:41.306Z,1440.00
2019-04-11T05:34:41.428Z,1452.00
2019-04-11T05:35:41.721Z,1464.00
2019-04-11T05:36:40.989Z,1480.00
2019-04-11T05:37:40.958Z,1500.00
2019-04-11T05:38:42.137Z,1524.00
2019-04-11T05:39:42.343Z,1540.00
2019-04-11T05:40:41.894Z,1560.00
2019-04-11T05:41:44.761Z,1568.00
2019-04-11T05:42:41.693Z,1584.00
2019-04-11T05:43:41.771Z,1600.00
2019-04-11T05:44:41.752Z,1616.00
2019-04-11T05:45:40.769Z,1628.00
2019-04-11T05:46:49.875Z,1640.00
2019-04-11T05:47:40.722Z,1652.00
2019-04-11T05:48:41.139Z,1668.00
2019-04-11T05:49:42.060Z,1688.00
2019-04-11T05:50:44.769Z,1704.00
2019-04-11T05:51:44.638Z,1724.00
2019-04-11T05:52:40.600Z,1744.00
2019-04-11T05:53:41.633Z,1760.00
2019-04-11T05:54:41.833Z,1776.00
2019-04-11T05:55:43.337Z,1788.00
2019-04-11T05:56:41.592Z,1804.00
2019-04-11T05:57:41.535Z,1820.00
2019-04-11T05:58:44.299Z,1848.00
2019-04-11T05:59:41.200Z,1872.00
2019-04-11T06:00:40.958Z,1892.00
2019-04-11T06:01:40.394Z,1896.00
2019-04-11T06:02:41.573Z,1908.00
2019-04-11T06:03:43.196Z,1928.00
2019-04-11T06:04:40.623Z,1944.00
2019-04-11T06:05:40.827Z,1960.00
2019-04-11T06:06:40.651Z,1980.00
2019-04-11T06:07:43.604Z,1996.00
2019-04-11T06:08:40.225Z,2024.00
2019-04-11T06:09:41.608Z,2044.00
2019-04-11T06:10:42.576Z,2068.00
2019-04-11T06:11:41.190Z,2096.00
2019-04-11T06:12:41.323Z,2120.00
2019-04-11T06:13:40.665Z,2136.00
2019-04-11T06:14:40.081Z,2160.00
2019-04-11T06:15:42.834Z,2184.00
2019-04-11T06:16:46.381Z,2208.00
2019-04-11T06:17:40.719Z,2224.00
2019-04-11T06:18:43.823Z,2248.00
2019-04-11T06:19:39.964Z,2264.00
2019-04-11T06:20:39.966Z,2276.00
2019-04-11T06:21:40.186Z,2296.00
2019-04-11T06:22:40.158Z,2328.00
2019-04-11T06:23:39.869Z,2364.00
2019-04-11T06:24:40.612Z,2400.00
2019-04-11T06:25:43.190Z,2436.00
2019-04-11T06:26:40.802Z,2472.00
2019-04-11T06:27:42.173Z,2504.00
2019-04-11T06:28:39.757Z,2548.00
2019-04-11T06:29:39.725Z,2596.00
2019-04-11T06:30:40.164Z,2692.00
2019-04-11T06:31:40.394Z,2804.00
2019-04-11T06:32:40.262Z,2928.00
2019-04-11T06:33:40.644Z,4508.00
2019-04-11T06:34:39.717Z,10656.00
2019-04-11T06:35:39.968Z,17280.00
2019-04-11T06:36:39.567Z,19552.00
2019-04-11T06:37:39.543Z,21408.00
2019-04-11T06:38:40.687Z,21088.00
2019-04-11T06:39:39.827Z,21696.00
2019-04-11T06:40:39.473Z,22720.00
2019-04-11T06:41:39.450Z,22208.00
2019-04-11T06:42:39.425Z,23968.00
2019-04-11T06:43:40.429Z,25472.00
2019-04-11T06:44:39.755Z,24288.00
2019-04-11T06:45:39.742Z,26144.00
2019-04-11T06:46:49.631Z,27456.00
2019-04-11T06:47:39.315Z,25824.00
2019-04-11T06:48:40.043Z,26720.00
2019-04-11T06:49:39.369Z,26112.00
2019-04-11T06:50:39.647Z,28320.00
2019-04-11T06:51:39.860Z,29696.00
2019-04-11T06:52:39.205Z,26816.00
2019-04-11T06:53:39.983Z,27712.00
2019-04-11T06:54:39.311Z,26784.00
2019-04-11T06:55:39.230Z,28384.00
2019-04-11T06:56:39.120Z,29408.00
2019-04-11T06:57:40.334Z,27808.00
2019-04-11T06:58:39.464Z,30176.00
2019-04-11T06:59:39.051Z,28416.00
2019-04-11T07:00:39.152Z,32128.00
2019-04-11T07:01:39.012Z,32608.00
2019-04-11T07:02:39.024Z,30592.00
2019-04-11T07:03:38.969Z,34048.00
2019-04-11T07:04:39.941Z,30368.00
2019-04-11T07:05:38.929Z,30752.00
2019-04-11T07:06:39.839Z,33440.00
2019-04-11T07:07:38.931Z,31712.00
2019-04-11T07:08:38.874Z,29920.00
2019-04-11T07:09:39.443Z,33696.00
2019-04-11T07:10:38.829Z,34304.00
2019-04-11T07:11:38.808Z,37984.00
2019-04-11T07:12:38.801Z,38464.00
2019-04-11T07:13:39.326Z,38784.00
2019-04-11T07:14:39.709Z,38240.00
2019-04-11T07:15:39.789Z,35456.00
2019-04-11T07:16:38.719Z,40256.00
2019-04-11T07:17:38.700Z,36512.00
2019-04-11T07:18:39.861Z,33120.00
2019-04-11T07:19:39.394Z,37056.00
2019-04-11T07:20:38.640Z,24192.00
2019-04-11T07:21:39.691Z,8456.00
2019-04-11T07:22:38.965Z,7756.00
2019-04-11T07:23:38.586Z,7848.00
2019-04-11T07:24:39.038Z,7752.00
2019-04-11T07:25:39.526Z,7640.00
2019-04-11T07:26:38.533Z,7668.00
2019-04-11T07:27:38.661Z,7776.00
2019-04-11T07:28:39.370Z,7772.00
2019-04-11T07:29:38.479Z,7944.00
2019-04-11T07:30:39.567Z,11300.00
2019-04-11T07:31:39.616Z,13220.00
2019-04-11T07:32:38.898Z,28064.00
2019-04-11T07:33:38.409Z,37504.00
2019-04-11T07:34:40.014Z,37120.00
2019-04-11T07:35:38.374Z,35296.00
2019-04-11T07:36:38.512Z,7348.00
2019-04-11T07:37:38.728Z,30144.00
2019-04-11T07:38:38.815Z,28256.00
2019-04-11T07:39:41.378Z,27168.00
2019-04-11T07:40:39.533Z,21408.00
2019-04-11T07:41:39.154Z,14120.00
2019-04-11T07:42:39.113Z,12764.00
2019-04-11T07:43:39.081Z,12200.00
2019-04-11T07:44:38.592Z,10568.00
2019-04-11T07:45:40.215Z,10220.00
2019-04-11T07:46:38.665Z,11092.00
2019-04-11T07:47:38.253Z,11680.00
2019-04-11T07:48:38.174Z,11332.00
2019-04-11T07:49:38.125Z,11684.00
2019-04-11T07:50:38.110Z,6288.00
2019-04-11T07:51:38.639Z,10812.00
2019-04-11T07:52:38.074Z,11784.00
2019-04-11T07:53:39.359Z,30592.00
2019-04-11T07:54:38.975Z,7844.00
2019-04-11T07:55:38.697Z,7340.00
2019-04-11T07:56:38.008Z,61280.00
2019-04-11T07:57:38.393Z,38496.00
2019-04-11T07:58:37.981Z,5800.00
2019-04-11T07:59:37.955Z,4420.00
2019-04-11T08:00:44.095Z,54368.00
2019-04-11T08:01:38.248Z,57536.00
2019-04-11T08:02:37.900Z,58880.00
2019-04-11T08:03:38.009Z,57504.00
2019-04-11T08:04:38.672Z,10168.00
2019-04-11T08:05:38.861Z,9796.00
2019-04-11T08:06:39.038Z,62208.00
2019-04-11T08:07:38.059Z,65152.00
2019-04-11T08:08:38.885Z,62784.00
2019-04-11T08:09:37.780Z,9396.00
2019-04-11T08:10:37.770Z,8504.00
2019-04-11T08:11:38.046Z,8004.00
2019-04-11T08:12:37.731Z,8248.00
2019-04-11T08:13:38.821Z,7896.00
2019-04-11T08:14:37.696Z,6384.00
2019-04-11T08:15:37.767Z,5336.00
2019-04-11T08:16:37.662Z,5608.00
2019-04-11T08:17:42.355Z,6324.00
2019-04-11T08:18:37.625Z,6160.00
2019-04-11T08:19:38.633Z,6256.00
2019-04-11T08:20:37.587Z,7112.00
2019-04-11T08:21:38.507Z,5048.00
2019-04-11T08:22:37.552Z,5736.00
2019-04-11T08:23:38.053Z,6052.00
2019-04-11T08:24:37.518Z,6116.00
2019-04-11T08:25:37.651Z,5748.00
2019-04-11T08:26:37.984Z,5940.00
2019-04-11T08:27:50.070Z,7128.00
2019-04-11T08:28:37.439Z,13584.00
2019-04-11T08:29:38.203Z,15556.00
2019-04-11T08:30:37.403Z,14972.00
2019-04-11T08:31:38.300Z,13608.00
2019-04-11T08:32:37.980Z,13180.00
2019-04-11T08:33:38.424Z,14372.00
2019-04-11T08:34:37.597Z,14832.00
2019-04-11T08:35:37.305Z,16416.00
2019-04-11T08:36:38.011Z,16960.00
2019-04-11T08:37:37.894Z,15620.00
2019-04-11T08:38:37.306Z,13252.00
2019-04-11T08:39:37.436Z,10588.00
2019-04-11T08:40:37.741Z,9252.00
2019-04-11T08:41:37.981Z,10080.00
2019-04-11T08:42:37.947Z,11384.00
2019-04-11T08:43:37.492Z,14924.00
2019-04-11T08:44:37.140Z,13200.00
2019-04-11T08:45:38.122Z,13676.00
2019-04-11T08:46:37.349Z,20512.00
2019-04-11T08:47:43.844Z,19008.00
2019-04-11T08:48:37.262Z,18848.00
2019-04-11T08:49:37.584Z,12372.00
2019-04-11T08:50:37.022Z,10584.00
2019-04-11T08:51:37.004Z,9564.00
2019-04-11T08:52:38.176Z,8920.00
2019-04-11T08:53:37.221Z,8256.00
2019-04-11T08:54:37.637Z,7708.00
2019-04-11T08:55:45.628Z,7456.00
2019-04-11T08:56:36.913Z,7892.00
2019-04-11T08:57:38.064Z,8980.00
2019-04-11T08:58:36.872Z,11656.00
2019-04-11T08:59:37.777Z,17184.00
2019-04-11T09:00:37.991Z,9976.00
2019-04-11T09:01:37.923Z,8528.00
2019-04-11T09:02:37.378Z,7120.00
2019-04-11T09:03:37.807Z,6584.00
2019-04-11T09:04:36.768Z,6868.00
2019-04-11T09:05:36.747Z,8220.00
2019-04-11T09:06:37.086Z,29312.00
2019-04-11T09:07:38.018Z,37056.00
2019-04-11T09:08:36.697Z,44864.00
2019-04-11T09:09:38.008Z,48800.00
2019-04-11T09:10:36.911Z,23776.00
2019-04-11T09:11:39.178Z,52576.00
2019-04-11T09:12:36.614Z,15504.00
2019-04-11T09:13:37.614Z,14676.00
2019-04-11T09:14:36.577Z,13960.00
2019-04-11T09:15:37.054Z,13448.00
2019-04-11T09:16:37.461Z,12808.00
2019-04-11T09:17:36.702Z,12312.00
2019-04-11T09:18:36.558Z,12288.00
2019-04-11T09:19:36.482Z,12536.00
2019-04-11T09:20:36.468Z,11688.00
2019-04-11T09:21:36.448Z,11600.00
2019-04-11T09:22:37.349Z,12212.00
2019-04-11T09:23:37.595Z,13096.00
2019-04-11T09:24:36.828Z,14992.00
2019-04-11T09:25:37.036Z,16760.00
2019-04-11T09:26:36.352Z,35328.00
2019-04-11T09:27:36.582Z,94304.00
2019-04-11T09:28:37.565Z,78496.00
2019-04-11T09:29:36.298Z,26880.00
2019-04-11T09:30:36.832Z,23712.00
2019-04-11T09:31:36.260Z,14208.00
2019-04-11T09:32:36.247Z,11712.00
2019-04-11T09:33:38.047Z,9656.00
2019-04-11T09:34:36.209Z,8372.00
2019-04-11T09:35:37.338Z,7236.00
2019-04-11T09:36:36.902Z,6400.00
2019-04-11T09:37:36.156Z,5816.00
2019-04-11T09:38:36.134Z,5588.00
2019-04-11T09:39:37.160Z,5516.00
2019-04-11T09:40:36.255Z,5528.00
2019-04-11T09:41:36.525Z,5896.00
2019-04-11T09:42:36.553Z,6548.00
2019-04-11T09:43:36.052Z,7516.00
2019-04-11T09:44:37.801Z,8416.00
2019-04-11T09:45:36.004Z,8756.00
2019-04-11T09:46:36.607Z,9120.00
2019-04-11T09:47:36.246Z,9248.00
2019-04-11T09:48:35.947Z,9312.00
2019-04-11T09:49:36.192Z,9404.00
2019-04-11T09:50:36.432Z,9656.00
2019-04-11T09:51:36.106Z,9996.00
2019-04-11T09:52:36.754Z,10288.00
2019-04-11T09:53:36.670Z,10464.00
2019-04-11T09:54:36.549Z,10732.00
2019-04-11T09:55:35.812Z,10608.00
2019-04-11T09:56:36.385Z,12932.00
2019-04-11T09:57:36.570Z,74528.00
2019-04-11T09:58:35.799Z,77088.00
2019-04-11T09:59:36.911Z,37248.00
2019-04-11T10:00:36.753Z,13332.00
2019-04-11T10:01:35.700Z,11296.00
2019-04-11T10:02:35.679Z,9852.00
2019-04-11T10:03:36.641Z,8432.00
2019-04-11T10:04:36.022Z,7596.00
2019-04-11T10:05:35.625Z,7176.00
2019-04-11T10:06:36.721Z,7076.00
2019-04-11T10:07:35.622Z,7400.00
2019-04-11T10:08:35.568Z,8160.00
2019-04-11T10:09:35.800Z,9048.00
2019-04-11T10:10:35.532Z,9680.00
2019-04-11T10:11:35.512Z,10272.00
2019-04-11T10:12:36.097Z,11032.00
2019-04-11T10:13:35.610Z,11592.00
2019-04-11T10:14:35.475Z,11840.00
2019-04-11T10:15:35.613Z,12452.00
2019-04-11T10:16:35.913Z,13160.00
2019-04-11T10:17:36.023Z,14052.00
2019-04-11T10:18:38.694Z,15068.00
2019-04-11T10:19:36.034Z,16216.00
2019-04-11T10:20:35.344Z,18304.00
2019-04-11T10:21:35.322Z,19872.00
2019-04-11T10:22:36.180Z,19552.00
2019-04-11T10:23:36.592Z,19072.00
2019-04-11T10:24:35.269Z,17984.00
2019-04-11T10:25:35.337Z,17120.00
2019-04-11T10:26:36.143Z,20608.00
2019-04-11T10:27:36.326Z,14700.00
2019-04-11T10:28:35.548Z,13796.00
2019-04-11T10:29:36.255Z,14060.00
2019-04-11T10:30:35.154Z,14392.00
2019-04-11T10:31:35.138Z,14424.00
2019-04-11T10:32:35.157Z,14832.00
2019-04-11T10:33:35.241Z,16384.00
2019-04-11T10:34:35.438Z,20000.00
2019-04-11T10:35:35.056Z,16496.00
2019-04-11T10:36:35.059Z,15648.00
2019-04-11T10:37:35.903Z,15388.00
2019-04-11T10:38:36.168Z,15236.00
2019-04-11T10:39:35.561Z,15836.00
2019-04-11T10:40:34.968Z,16368.00
2019-04-11T10:41:34.947Z,17088.00
2019-04-11T10:42:35.047Z,18304.00
2019-04-11T10:43:36.203Z,19232.00
2019-04-11T10:44:35.916Z,19904.00
2019-04-11T10:45:34.875Z,20256.00
2019-04-11T10:46:35.476Z,19392.00
2019-04-11T10:47:34.836Z,19392.00
2019-04-11T10:48:39.764Z,18752.00
2019-04-11T10:49:34.802Z,17536.00
2019-04-11T10:50:35.983Z,15204.00
2019-04-11T10:51:35.853Z,13576.00
2019-04-11T10:52:34.747Z,12420.00
2019-04-11T10:53:35.383Z,11772.00
2019-04-11T10:54:34.711Z,11556.00
2019-04-11T10:55:35.702Z,11780.00
2019-04-11T10:56:34.800Z,12140.00
2019-04-11T10:57:34.654Z,12784.00
2019-04-11T10:58:35.140Z,13508.00
2019-04-11T10:59:34.620Z,13760.00
2019-04-11T11:00:35.578Z,13356.00
2019-04-11T11:01:35.852Z,12556.00
2019-04-11T11:02:35.717Z,12416.00
2019-04-11T11:03:34.548Z,12796.00
2019-04-11T11:04:34.792Z,12740.00
2019-04-11T11:05:34.681Z,12164.00
2019-04-11T11:06:35.754Z,11492.00
2019-04-11T11:07:34.995Z,11000.00
2019-04-11T11:08:34.455Z,10876.00
2019-04-11T11:09:35.581Z,10796.00
2019-04-11T11:10:35.440Z,10680.00
2019-04-11T11:11:34.604Z,11468.00
2019-04-11T11:12:35.133Z,11372.00
2019-04-11T11:13:34.361Z,10984.00
2019-04-11T11:14:34.569Z,10908.00
2019-04-11T11:15:34.323Z,11072.00
2019-04-11T11:16:39.391Z,10612.00
2019-04-11T11:17:54.886Z,10004.00
2019-04-11T11:18:53.872Z,9704.00
2019-04-11T11:19:50.068Z,9376.00
2019-04-11T11:20:39.261Z,8832.00
2019-04-11T11:21:35.499Z,8220.00
2019-04-11T11:22:34.912Z,7884.00
2019-04-11T11:23:35.297Z,7652.00
2019-04-11T11:24:39.059Z,7596.00
2019-04-11T11:25:35.088Z,7552.00
2019-04-11T11:26:35.479Z,7568.00
2019-04-11T11:27:34.758Z,7688.00
2019-04-11T11:28:34.340Z,7660.00
2019-04-11T11:29:35.028Z,7560.00
2019-04-11T11:30:35.290Z,7544.00
2019-04-11T11:31:34.155Z,7644.00
2019-04-11T11:32:34.012Z,7772.00
2019-04-11T11:33:34.152Z,7884.00
2019-04-11T11:34:34.723Z,7812.00
2019-04-11T11:35:37.186Z,7552.00
2019-04-11T11:36:37.464Z,7268.00
2019-04-11T11:37:33.907Z,6768.00
2019-04-11T11:38:33.889Z,6728.00
2019-04-11T11:39:33.878Z,6840.00
2019-04-11T11:40:38.410Z,6968.00
2019-04-11T11:41:33.828Z,6936.00
2019-04-11T11:42:34.472Z,6872.00
2019-04-11T11:43:34.969Z,6712.00
2019-04-11T11:44:34.932Z,6368.00
2019-04-11T11:45:33.751Z,6136.00
2019-04-11T11:46:34.153Z,6028.00
2019-04-11T11:47:37.963Z,5916.00
2019-04-11T11:48:33.693Z,5832.00
2019-04-11T11:49:47.314Z,5756.00
2019-04-11T11:50:35.004Z,5932.00
2019-04-11T11:51:33.636Z,6416.00
2019-04-11T11:52:35.024Z,6844.00
2019-04-11T11:53:33.601Z,7160.00
2019-04-11T11:54:33.572Z,7200.00
2019-04-11T11:55:33.594Z,7000.00
2019-04-11T11:56:34.003Z,6832.00
2019-04-11T11:57:33.511Z,6684.00
2019-04-11T11:58:33.493Z,6612.00
2019-04-11T11:59:34.461Z,6292.00
2019-04-11T12:00:33.466Z,6116.00
2019-04-11T12:01:33.663Z,6152.00
2019-04-11T12:02:34.761Z,6248.00
2019-04-11T12:03:33.392Z,6324.00
2019-04-11T12:04:36.015Z,6448.00
2019-04-11T12:05:34.496Z,6640.00
2019-04-11T12:06:33.432Z,6912.00
2019-04-11T12:07:37.058Z,6900.00
2019-04-11T12:08:33.291Z,6704.00
2019-04-11T12:09:34.244Z,6508.00
2019-04-11T12:10:34.016Z,6564.00
2019-04-11T12:11:34.404Z,6640.00
2019-04-11T12:12:33.209Z,6808.00
2019-04-11T12:13:33.189Z,6872.00
2019-04-11T12:14:33.169Z,6940.00
2019-04-11T12:15:33.151Z,6984.00
2019-04-11T12:16:34.546Z,6868.00
2019-04-11T12:17:36.164Z,6312.00
2019-04-11T12:18:33.088Z,5796.00
2019-04-11T12:19:45.337Z,5636.00
2019-04-11T12:20:33.050Z,5772.00
2019-04-11T12:21:33.026Z,5928.00
2019-04-11T12:22:33.006Z,6088.00
2019-04-11T12:23:44.637Z,6284.00
2019-04-11T12:24:34.308Z,6420.00
2019-04-11T12:25:33.449Z,6648.00
2019-04-11T12:26:33.845Z,6960.00
2019-04-11T12:27:33.038Z,7276.00
2019-04-11T12:28:33.465Z,7572.00